<?xml version='1.0' encoding='UTF-8'?><gpx version="1.1" creator="JPX - https://github.com/jenetics/jpx" xmlns="http://www.topografix.com/GPX/1/1"><trk><trkseg><trkpt lat="38.2098387" lon="15.5002753"><ele>540.8000000000001</ele><time>2026-03-26T10:37:52.751Z</time></trkpt><trkpt lat="38.2097534" lon="15.5001566"><ele>544.6</ele><time>2026-03-26T10:37:54.75Z</time></trkpt><trkpt lat="38.2097011" lon="15.5000751"><ele>548.4000000000001</ele><time>2026-03-26T10:37:55.751Z</time></trkpt><trkpt lat="38.2096488" lon="15.4999894"><ele>552.2</ele><time>2026-03-26T10:37:56.751Z</time></trkpt><trkpt lat="38.2096037" lon="15.4999011"><ele>556.0</ele><time>2026-03-26T10:37:57.75Z</time></trkpt><trkpt lat="38.2095508" lon="15.4998142"><ele>556.0</ele><time>2026-03-26T10:37:58.749Z</time></trkpt><trkpt lat="38.2095037" lon="15.4997219"><ele>556.0</ele><time>2026-03-26T10:37:59.75Z</time></trkpt><trkpt lat="38.2094608" lon="15.4996343"><ele>556.0</ele><time>2026-03-26T10:38:00.751Z</time></trkpt><trkpt lat="38.2094168" lon="15.4995493"><ele>556.0</ele><time>2026-03-26T10:38:01.751Z</time></trkpt><trkpt lat="38.209373" lon="15.4994591"><ele>556.0</ele><time>2026-03-26T10:38:02.75Z</time></trkpt><trkpt lat="38.2093426" lon="15.4993662"><ele>556.0</ele><time>2026-03-26T10:38:03.75Z</time></trkpt><trkpt lat="38.2093195" lon="15.4992696"><ele>556.5</ele><time>2026-03-26T10:38:04.751Z</time></trkpt><trkpt lat="38.2092873" lon="15.4991769"><ele>557.0</ele><time>2026-03-26T10:38:05.751Z</time></trkpt><trkpt lat="38.2092488" lon="15.4990919"><ele>557.5</ele><time>2026-03-26T10:38:06.751Z</time></trkpt><trkpt lat="38.209217" lon="15.4989936"><ele>558.0</ele><time>2026-03-26T10:38:07.75Z</time></trkpt><trkpt lat="38.20918" lon="15.4989009"><ele>558.5</ele><time>2026-03-26T10:38:08.75Z</time></trkpt><trkpt lat="38.2091628" lon="15.4988154"><ele>559.0</ele><time>2026-03-26T10:38:09.75Z</time></trkpt><trkpt lat="38.2091452" lon="15.4987274"><ele>557.1666666666667</ele><time>2026-03-26T10:38:10.748Z</time></trkpt><trkpt lat="38.2091522" lon="15.4985936"><ele>555.3333333333334</ele><time>2026-03-26T10:38:11.751Z</time></trkpt><trkpt lat="38.2091324" lon="15.4985026"><ele>553.5</ele><time>2026-03-26T10:38:12.751Z</time></trkpt><trkpt lat="38.2091219" lon="15.4984197"><ele>551.6666666666666</ele><time>2026-03-26T10:38:13.749Z</time></trkpt><trkpt lat="38.2091095" lon="15.498325"><ele>549.8333333333333</ele><time>2026-03-26T10:38:14.751Z</time></trkpt><trkpt lat="38.2091057" lon="15.4982276"><ele>548.0</ele><time>2026-03-26T10:38:15.751Z</time></trkpt><trkpt lat="38.2091099" lon="15.4981172"><ele>548.0</ele><time>2026-03-26T10:38:16.75Z</time></trkpt><trkpt lat="38.2091093" lon="15.4980268"><ele>548.0</ele><time>2026-03-26T10:38:17.751Z</time></trkpt><trkpt lat="38.2091245" lon="15.4978983"><ele>548.0</ele><time>2026-03-26T10:38:18.75Z</time></trkpt><trkpt lat="38.2091182" lon="15.4977982"><ele>548.0</ele><time>2026-03-26T10:38:19.75Z</time></trkpt><trkpt lat="38.2091052" lon="15.4977046"><ele>548.0</ele><time>2026-03-26T10:38:20.75Z</time></trkpt><trkpt lat="38.2090769" lon="15.4976137"><ele>548.0</ele><time>2026-03-26T10:38:21.749Z</time></trkpt><trkpt lat="38.2090343" lon="15.4975334"><ele>552.0</ele><time>2026-03-26T10:38:22.75Z</time></trkpt><trkpt lat="38.2089768" lon="15.4974592"><ele>556.0</ele><time>2026-03-26T10:38:23.75Z</time></trkpt><trkpt lat="38.208928" lon="15.497387"><ele>560.0</ele><time>2026-03-26T10:38:24.75Z</time></trkpt><trkpt lat="38.2088471" lon="15.497325"><ele>564.0</ele><time>2026-03-26T10:38:25.75Z</time></trkpt><trkpt lat="38.2087893" lon="15.4972707"><ele>568.0</ele><time>2026-03-26T10:38:26.751Z</time></trkpt><trkpt lat="38.208729" lon="15.4972231"><ele>572.0</ele><time>2026-03-26T10:38:27.751Z</time></trkpt><trkpt lat="38.2086681" lon="15.4971764"><ele>572.0</ele><time>2026-03-26T10:38:28.751Z</time></trkpt><trkpt lat="38.2086007" lon="15.4971567"><ele>572.0</ele><time>2026-03-26T10:38:29.751Z</time></trkpt><trkpt lat="38.2084953" lon="15.497148"><ele>572.0</ele><time>2026-03-26T10:38:31.75Z</time></trkpt><trkpt lat="38.2084033" lon="15.4971748"><ele>572.0</ele><time>2026-03-26T10:38:33.75Z</time></trkpt><trkpt lat="38.2083355" lon="15.4971733"><ele>572.0</ele><time>2026-03-26T10:38:35.751Z</time></trkpt><trkpt lat="38.2082696" lon="15.4971017"><ele>572.0</ele><time>2026-03-26T10:38:37.751Z</time></trkpt><trkpt lat="38.2082886" lon="15.4970169"><ele>570.6</ele><time>2026-03-26T10:38:39.75Z</time></trkpt><trkpt lat="38.2083309" lon="15.4968888"><ele>569.2</ele><time>2026-03-26T10:38:41.751Z</time></trkpt><trkpt lat="38.2083694" lon="15.4967924"><ele>567.8</ele><time>2026-03-26T10:38:42.751Z</time></trkpt><trkpt lat="38.2083785" lon="15.4967059"><ele>566.4</ele><time>2026-03-26T10:38:43.75Z</time></trkpt><trkpt lat="38.2083635" lon="15.4965533"><ele>565.0</ele><time>2026-03-26T10:38:45.75Z</time></trkpt><trkpt lat="38.2083412" lon="15.4964648"><ele>565.0</ele><time>2026-03-26T10:38:46.75Z</time></trkpt><trkpt lat="38.2083015" lon="15.4963745"><ele>565.0</ele><time>2026-03-26T10:38:47.751Z</time></trkpt><trkpt lat="38.2082712" lon="15.4962444"><ele>565.0</ele><time>2026-03-26T10:38:49.749Z</time></trkpt><trkpt lat="38.2082898" lon="15.4961677"><ele>565.0</ele><time>2026-03-26T10:38:50.751Z</time></trkpt><trkpt lat="38.2083171" lon="15.4960786"><ele>565.0</ele><time>2026-03-26T10:38:51.75Z</time></trkpt><trkpt lat="38.2083416" lon="15.4959926"><ele>565.0</ele><time>2026-03-26T10:38:52.751Z</time></trkpt><trkpt lat="38.2083509" lon="15.4958432"><ele>563.5</ele><time>2026-03-26T10:38:54.75Z</time></trkpt><trkpt lat="38.2082977" lon="15.495714"><ele>562.0</ele><time>2026-03-26T10:38:56.751Z</time></trkpt><trkpt lat="38.2082169" lon="15.4956111"><ele>560.5</ele><time>2026-03-26T10:38:58.75Z</time></trkpt><trkpt lat="38.2081476" lon="15.4955838"><ele>559.0</ele><time>2026-03-26T10:38:59.751Z</time></trkpt><trkpt lat="38.2080817" lon="15.4955586"><ele>557.5</ele><time>2026-03-26T10:39:00.75Z</time></trkpt><trkpt lat="38.208015" lon="15.4955499"><ele>556.0</ele><time>2026-03-26T10:39:01.751Z</time></trkpt><trkpt lat="38.20794" lon="15.4955453"><ele>561.0</ele><time>2026-03-26T10:39:02.751Z</time></trkpt><trkpt lat="38.207844" lon="15.4955286"><ele>566.0</ele><time>2026-03-26T10:39:03.75Z</time></trkpt><trkpt lat="38.2077521" lon="15.495536"><ele>571.0</ele><time>2026-03-26T10:39:04.751Z</time></trkpt><trkpt lat="38.2076773" lon="15.4955415"><ele>576.0</ele><time>2026-03-26T10:39:05.75Z</time></trkpt><trkpt lat="38.2075993" lon="15.4955481"><ele>581.0</ele><time>2026-03-26T10:39:06.75Z</time></trkpt><trkpt lat="38.2075021" lon="15.4955096"><ele>586.0</ele><time>2026-03-26T10:39:08.75Z</time></trkpt><trkpt lat="38.207466" lon="15.4954439"><ele>582.2</ele><time>2026-03-26T10:39:11.751Z</time></trkpt><trkpt lat="38.2075035" lon="15.4953159"><ele>578.4000000000001</ele><time>2026-03-26T10:39:13.75Z</time></trkpt><trkpt lat="38.2074679" lon="15.4952094"><ele>574.6</ele><time>2026-03-26T10:39:14.751Z</time></trkpt><trkpt lat="38.207419" lon="15.4950362"><ele>570.8000000000001</ele><time>2026-03-26T10:39:16.751Z</time></trkpt><trkpt lat="38.2074047" lon="15.4949305"><ele>567.0</ele><time>2026-03-26T10:39:17.751Z</time></trkpt><trkpt lat="38.2073919" lon="15.4948142"><ele>567.0</ele><time>2026-03-26T10:39:18.751Z</time></trkpt><trkpt lat="38.2073761" lon="15.4947122"><ele>567.0</ele><time>2026-03-26T10:39:19.751Z</time></trkpt><trkpt lat="38.2073509" lon="15.494628"><ele>567.0</ele><time>2026-03-26T10:39:20.751Z</time></trkpt><trkpt lat="38.2073034" lon="15.4945042"><ele>567.0</ele><time>2026-03-26T10:39:22.749Z</time></trkpt><trkpt lat="38.2072282" lon="15.4944075"><ele>567.0</ele><time>2026-03-26T10:39:24.75Z</time></trkpt><trkpt lat="38.207171" lon="15.4943594"><ele>567.0</ele><time>2026-03-26T10:39:25.751Z</time></trkpt><trkpt lat="38.2070922" lon="15.4942514"><ele>570.2</ele><time>2026-03-26T10:39:27.751Z</time></trkpt><trkpt lat="38.2069939" lon="15.4941442"><ele>573.4000000000001</ele><time>2026-03-26T10:39:29.751Z</time></trkpt><trkpt lat="38.2068786" lon="15.4940981"><ele>576.5999999999999</ele><time>2026-03-26T10:39:31.75Z</time></trkpt><trkpt lat="38.206785" lon="15.4940779"><ele>579.8</ele><time>2026-03-26T10:39:33.75Z</time></trkpt><trkpt lat="38.206693" lon="15.4941171"><ele>583.0</ele><time>2026-03-26T10:39:35.751Z</time></trkpt><trkpt lat="38.2066368" lon="15.4940757"><ele>583.0</ele><time>2026-03-26T10:39:38.751Z</time></trkpt><trkpt lat="38.2066373" lon="15.4939801"><ele>583.0</ele><time>2026-03-26T10:39:41.751Z</time></trkpt><trkpt lat="38.2065848" lon="15.4938847"><ele>583.0</ele><time>2026-03-26T10:39:43.75Z</time></trkpt><trkpt lat="38.2064925" lon="15.4938155"><ele>583.0</ele><time>2026-03-26T10:39:45.75Z</time></trkpt><trkpt lat="38.2064328" lon="15.4937496"><ele>583.0</ele><time>2026-03-26T10:39:47.75Z</time></trkpt><trkpt lat="38.2064179" lon="15.4936629"><ele>583.0</ele><time>2026-03-26T10:39:50.751Z</time></trkpt><trkpt lat="38.2064483" lon="15.4935506"><ele>582.3333333333334</ele><time>2026-03-26T10:39:52.751Z</time></trkpt><trkpt lat="38.2064899" lon="15.4934558"><ele>581.6666666666667</ele><time>2026-03-26T10:39:54.751Z</time></trkpt><trkpt lat="38.2065126" lon="15.4933594"><ele>581.0</ele><time>2026-03-26T10:39:56.75Z</time></trkpt><trkpt lat="38.2065563" lon="15.4932785"><ele>580.3333333333334</ele><time>2026-03-26T10:39:58.75Z</time></trkpt><trkpt lat="38.2065953" lon="15.4931947"><ele>579.6666666666666</ele><time>2026-03-26T10:40:00.751Z</time></trkpt><trkpt lat="38.2066304" lon="15.4930873"><ele>579.0</ele><time>2026-03-26T10:40:02.75Z</time></trkpt><trkpt lat="38.2067216" lon="15.4930353"><ele>579.0</ele><time>2026-03-26T10:40:04.75Z</time></trkpt><trkpt lat="38.2068055" lon="15.4930208"><ele>579.0</ele><time>2026-03-26T10:40:06.749Z</time></trkpt><trkpt lat="38.2068923" lon="15.4929968"><ele>579.0</ele><time>2026-03-26T10:40:08.75Z</time></trkpt><trkpt lat="38.2069812" lon="15.4929728"><ele>579.0</ele><time>2026-03-26T10:40:10.75Z</time></trkpt><trkpt lat="38.2070819" lon="15.4929372"><ele>579.0</ele><time>2026-03-26T10:40:12.75Z</time></trkpt><trkpt lat="38.2071627" lon="15.492871"><ele>580.5</ele><time>2026-03-26T10:40:14.75Z</time></trkpt><trkpt lat="38.2072064" lon="15.4928044"><ele>582.0</ele><time>2026-03-26T10:40:15.751Z</time></trkpt><trkpt lat="38.207263" lon="15.4927526"><ele>583.5</ele><time>2026-03-26T10:40:16.75Z</time></trkpt><trkpt lat="38.2073063" lon="15.4926463"><ele>585.0</ele><time>2026-03-26T10:40:18.75Z</time></trkpt><trkpt lat="38.20733" lon="15.4925047"><ele>586.5</ele><time>2026-03-26T10:40:20.751Z</time></trkpt><trkpt lat="38.2073335" lon="15.4923897"><ele>588.0</ele><time>2026-03-26T10:40:22.751Z</time></trkpt><trkpt lat="38.2073334" lon="15.4922841"><ele>588.0</ele><time>2026-03-26T10:40:23.75Z</time></trkpt><trkpt lat="38.2073121" lon="15.4921366"><ele>588.0</ele><time>2026-03-26T10:40:25.751Z</time></trkpt><trkpt lat="38.2073353" lon="15.4920256"><ele>588.0</ele><time>2026-03-26T10:40:26.751Z</time></trkpt><trkpt lat="38.2073006" lon="15.4919453"><ele>588.0</ele><time>2026-03-26T10:40:28.75Z</time></trkpt><trkpt lat="38.2072788" lon="15.491867"><ele>588.0</ele><time>2026-03-26T10:40:34.75Z</time></trkpt><trkpt lat="38.2072531" lon="15.4917654"><ele>588.0</ele><time>2026-03-26T10:40:50.751Z</time></trkpt><trkpt lat="38.2072164" lon="15.4916417"><ele>585.8</ele><time>2026-03-26T10:40:52.749Z</time></trkpt><trkpt lat="38.2072394" lon="15.4914594"><ele>583.5999999999999</ele><time>2026-03-26T10:40:54.751Z</time></trkpt><trkpt lat="38.207262" lon="15.4913463"><ele>581.4000000000001</ele><time>2026-03-26T10:40:56.751Z</time></trkpt><trkpt lat="38.207246" lon="15.4912496"><ele>579.2</ele><time>2026-03-26T10:40:58.751Z</time></trkpt><trkpt lat="38.2072177" lon="15.4911702"><ele>577.0</ele><time>2026-03-26T10:41:01.75Z</time></trkpt><trkpt lat="38.2071358" lon="15.4911924"><ele>577.0</ele><time>2026-03-26T10:41:04.751Z</time></trkpt><trkpt lat="38.2070912" lon="15.4912688"><ele>577.0</ele><time>2026-03-26T10:41:06.749Z</time></trkpt><trkpt lat="38.2070323" lon="15.4913248"><ele>577.0</ele><time>2026-03-26T10:41:08.75Z</time></trkpt><trkpt lat="38.2069" lon="15.4913195"><ele>577.0</ele><time>2026-03-26T10:41:10.751Z</time></trkpt><trkpt lat="38.2068023" lon="15.4913369"><ele>577.0</ele><time>2026-03-26T10:41:12.75Z</time></trkpt><trkpt lat="38.2066943" lon="15.4913582"><ele>577.0</ele><time>2026-03-26T10:41:14.751Z</time></trkpt><trkpt lat="38.2065875" lon="15.4913757"><ele>577.0</ele><time>2026-03-26T10:41:16.751Z</time></trkpt><trkpt lat="38.2064959" lon="15.491377"><ele>577.0</ele><time>2026-03-26T10:41:17.75Z</time></trkpt><trkpt lat="38.2064234" lon="15.4913717"><ele>577.0</ele><time>2026-03-26T10:41:18.749Z</time></trkpt><trkpt lat="38.2063331" lon="15.491343"><ele>577.0</ele><time>2026-03-26T10:41:19.75Z</time></trkpt><trkpt lat="38.2062585" lon="15.491315"><ele>577.0</ele><time>2026-03-26T10:41:20.749Z</time></trkpt><trkpt lat="38.2061943" lon="15.4912632"><ele>575.6</ele><time>2026-03-26T10:41:21.749Z</time></trkpt><trkpt lat="38.2060885" lon="15.491256"><ele>574.2</ele><time>2026-03-26T10:41:23.75Z</time></trkpt><trkpt lat="38.2060219" lon="15.4912494"><ele>572.8</ele><time>2026-03-26T10:41:24.751Z</time></trkpt><trkpt lat="38.2059406" lon="15.4913068"><ele>571.4</ele><time>2026-03-26T10:41:26.751Z</time></trkpt><trkpt lat="38.205862" lon="15.4913594"><ele>570.0</ele><time>2026-03-26T10:41:28.75Z</time></trkpt><trkpt lat="38.2058198" lon="15.4914712"><ele>574.0</ele><time>2026-03-26T10:41:31.751Z</time></trkpt><trkpt lat="38.2058879" lon="15.4915027"><ele>578.0</ele><time>2026-03-26T10:41:34.751Z</time></trkpt><trkpt lat="38.2059968" lon="15.4914821"><ele>582.0</ele><time>2026-03-26T10:41:36.751Z</time></trkpt><trkpt lat="38.2060872" lon="15.4914714"><ele>586.0</ele><time>2026-03-26T10:41:38.752Z</time></trkpt><trkpt lat="38.2061547" lon="15.4914798"><ele>590.0</ele><time>2026-03-26T10:41:40.751Z</time></trkpt><trkpt lat="38.2061947" lon="15.4915448"><ele>594.0</ele><time>2026-03-26T10:41:43.751Z</time></trkpt><trkpt lat="38.2061532" lon="15.4916095"><ele>594.0</ele><time>2026-03-26T10:41:45.751Z</time></trkpt><trkpt lat="38.205983" lon="15.4916724"><ele>594.0</ele><time>2026-03-26T10:41:47.752Z</time></trkpt><trkpt lat="38.2059016" lon="15.4916991"><ele>594.0</ele><time>2026-03-26T10:41:48.752Z</time></trkpt><trkpt lat="38.2058367" lon="15.4917185"><ele>594.0</ele><time>2026-03-26T10:41:49.751Z</time></trkpt><trkpt lat="38.2057725" lon="15.491742"><ele>594.0</ele><time>2026-03-26T10:41:50.752Z</time></trkpt><trkpt lat="38.2056752" lon="15.4916782"><ele>593.8333333333334</ele><time>2026-03-26T10:41:52.751Z</time></trkpt><trkpt lat="38.2056127" lon="15.4916156"><ele>593.6666666666666</ele><time>2026-03-26T10:41:53.752Z</time></trkpt><trkpt lat="38.2055392" lon="15.4915517"><ele>593.5</ele><time>2026-03-26T10:41:54.752Z</time></trkpt><trkpt lat="38.2055012" lon="15.4914734"><ele>593.3333333333333</ele><time>2026-03-26T10:41:55.751Z</time></trkpt><trkpt lat="38.2054333" lon="15.4913741"><ele>593.1666666666666</ele><time>2026-03-26T10:41:56.751Z</time></trkpt><trkpt lat="38.2053659" lon="15.4912754"><ele>593.0</ele><time>2026-03-26T10:41:57.751Z</time></trkpt><trkpt lat="38.2053315" lon="15.4911843"><ele>593.0</ele><time>2026-03-26T10:41:58.751Z</time></trkpt><trkpt lat="38.2052933" lon="15.491093"><ele>593.0</ele><time>2026-03-26T10:41:59.751Z</time></trkpt><trkpt lat="38.2052542" lon="15.4910244"><ele>593.0</ele><time>2026-03-26T10:42:00.75Z</time></trkpt><trkpt lat="38.2051984" lon="15.4909617"><ele>593.0</ele><time>2026-03-26T10:42:01.751Z</time></trkpt><trkpt lat="38.2050853" lon="15.4908659"><ele>593.0</ele><time>2026-03-26T10:42:03.752Z</time></trkpt><trkpt lat="38.2050243" lon="15.490803"><ele>593.0</ele><time>2026-03-26T10:42:04.751Z</time></trkpt><trkpt lat="38.2049427" lon="15.490777"><ele>595.1999999999999</ele><time>2026-03-26T10:42:05.752Z</time></trkpt><trkpt lat="38.2048089" lon="15.4907518"><ele>597.4</ele><time>2026-03-26T10:42:07.752Z</time></trkpt><trkpt lat="38.2047405" lon="15.4907322"><ele>599.5999999999999</ele><time>2026-03-26T10:42:08.752Z</time></trkpt><trkpt lat="38.2046531" lon="15.4907179"><ele>601.8</ele><time>2026-03-26T10:42:09.751Z</time></trkpt><trkpt lat="38.2045808" lon="15.4906608"><ele>604.0</ele><time>2026-03-26T10:42:10.751Z</time></trkpt><trkpt lat="38.204508" lon="15.4906521"><ele>604.0</ele><time>2026-03-26T10:42:11.751Z</time></trkpt><trkpt lat="38.2043937" lon="15.4907063"><ele>604.0</ele><time>2026-03-26T10:42:12.751Z</time></trkpt><trkpt lat="38.2043073" lon="15.4907119"><ele>604.0</ele><time>2026-03-26T10:42:13.751Z</time></trkpt><trkpt lat="38.2042466" lon="15.4907413"><ele>604.0</ele><time>2026-03-26T10:42:14.751Z</time></trkpt><trkpt lat="38.2041817" lon="15.4907626"><ele>604.0</ele><time>2026-03-26T10:42:15.751Z</time></trkpt><trkpt lat="38.2040621" lon="15.4908463"><ele>604.8</ele><time>2026-03-26T10:42:17.751Z</time></trkpt><trkpt lat="38.2039721" lon="15.4909793"><ele>605.5999999999999</ele><time>2026-03-26T10:42:19.752Z</time></trkpt><trkpt lat="38.2039145" lon="15.4911066"><ele>606.4</ele><time>2026-03-26T10:42:21.751Z</time></trkpt><trkpt lat="38.2038724" lon="15.4911664"><ele>607.1999999999999</ele><time>2026-03-26T10:42:22.751Z</time></trkpt><trkpt lat="38.2037948" lon="15.4912666"><ele>608.0</ele><time>2026-03-26T10:42:24.751Z</time></trkpt><trkpt lat="38.2036709" lon="15.4913082"><ele>612.5</ele><time>2026-03-26T10:42:26.751Z</time></trkpt><trkpt lat="38.2035947" lon="15.4913501"><ele>617.0</ele><time>2026-03-26T10:42:28.752Z</time></trkpt><trkpt lat="38.2035178" lon="15.4914325"><ele>621.5</ele><time>2026-03-26T10:42:30.751Z</time></trkpt><trkpt lat="38.2035268" lon="15.4915332"><ele>626.0</ele><time>2026-03-26T10:42:34.752Z</time></trkpt><trkpt lat="38.2035997" lon="15.4915547"><ele>630.5</ele><time>2026-03-26T10:42:40.75Z</time></trkpt><trkpt lat="38.20354" lon="15.4914937"><ele>635.0</ele><time>2026-03-26T10:42:56.752Z</time></trkpt><trkpt lat="38.2035039" lon="15.4913749"><ele>635.0</ele><time>2026-03-26T10:42:59.751Z</time></trkpt><trkpt lat="38.203447" lon="15.4912677"><ele>635.0</ele><time>2026-03-26T10:43:00.752Z</time></trkpt><trkpt lat="38.2033637" lon="15.4911933"><ele>635.0</ele><time>2026-03-26T10:43:01.75Z</time></trkpt><trkpt lat="38.2033129" lon="15.491132"><ele>635.0</ele><time>2026-03-26T10:43:02.751Z</time></trkpt><trkpt lat="38.2032239" lon="15.4910419"><ele>635.0</ele><time>2026-03-26T10:43:04.751Z</time></trkpt><trkpt lat="38.2031471" lon="15.490969"><ele>633.0</ele><time>2026-03-26T10:43:06.751Z</time></trkpt><trkpt lat="38.2030775" lon="15.4909161"><ele>631.0</ele><time>2026-03-26T10:43:09.752Z</time></trkpt><trkpt lat="38.2030178" lon="15.4908856"><ele>629.0</ele><time>2026-03-26T10:43:10.751Z</time></trkpt><trkpt lat="38.2029651" lon="15.4908406"><ele>627.0</ele><time>2026-03-26T10:43:11.751Z</time></trkpt><trkpt lat="38.2028408" lon="15.4907747"><ele>625.0</ele><time>2026-03-26T10:43:13.751Z</time></trkpt><trkpt lat="38.2027763" lon="15.4907383"><ele>623.0</ele><time>2026-03-26T10:43:14.752Z</time></trkpt><trkpt lat="38.2026882" lon="15.4907462"><ele>623.0</ele><time>2026-03-26T10:43:15.752Z</time></trkpt><trkpt lat="38.202591" lon="15.4907311"><ele>623.0</ele><time>2026-03-26T10:43:16.751Z</time></trkpt><trkpt lat="38.2024808" lon="15.4907373"><ele>623.0</ele><time>2026-03-26T10:43:17.75Z</time></trkpt><trkpt lat="38.2023901" lon="15.4907457"><ele>623.0</ele><time>2026-03-26T10:43:18.751Z</time></trkpt><trkpt lat="38.2022948" lon="15.4907507"><ele>623.0</ele><time>2026-03-26T10:43:19.751Z</time></trkpt><trkpt lat="38.2022168" lon="15.4907476"><ele>621.0</ele><time>2026-03-26T10:43:20.751Z</time></trkpt><trkpt lat="38.2021432" lon="15.4907312"><ele>621.0</ele><time>2026-03-26T10:43:21.752Z</time></trkpt><trkpt lat="38.2020358" lon="15.4907409"><ele>621.0</ele><time>2026-03-26T10:43:23.752Z</time></trkpt><trkpt lat="38.2019597" lon="15.4907303"><ele>621.0</ele><time>2026-03-26T10:43:25.751Z</time></trkpt></trkseg><trkseg><trkpt lat="38.2036475" lon="15.4915704"><ele>635.0</ele><time>2026-03-26T10:53:53.753Z</time></trkpt><trkpt lat="38.2035959" lon="15.4915069"><ele>635.0</ele><time>2026-03-26T10:53:59.754Z</time></trkpt><trkpt lat="38.2035629" lon="15.4914379"><ele>635.0</ele><time>2026-03-26T10:54:02.754Z</time></trkpt><trkpt lat="38.2035486" lon="15.4913585"><ele>635.0</ele><time>2026-03-26T10:54:05.754Z</time></trkpt><trkpt lat="38.2035494" lon="15.4912712"><ele>635.0</ele><time>2026-03-26T10:54:07.752Z</time></trkpt><trkpt lat="38.2037796" lon="15.4911094"><ele>630.5</ele><time>2026-03-26T10:54:14.753Z</time></trkpt><trkpt lat="38.2038445" lon="15.4910386"><ele>626.0</ele><time>2026-03-26T10:54:15.754Z</time></trkpt><trkpt lat="38.2039131" lon="15.4909772"><ele>621.5</ele><time>2026-03-26T10:54:16.753Z</time></trkpt><trkpt lat="38.2039559" lon="15.4909105"><ele>617.0</ele><time>2026-03-26T10:54:17.754Z</time></trkpt><trkpt lat="38.2040244" lon="15.4908386"><ele>612.5</ele><time>2026-03-26T10:54:19.753Z</time></trkpt><trkpt lat="38.2041052" lon="15.4907585"><ele>608.0</ele><time>2026-03-26T10:54:21.754Z</time></trkpt><trkpt lat="38.2041795" lon="15.4907165"><ele>607.1999999999999</ele><time>2026-03-26T10:54:22.753Z</time></trkpt><trkpt lat="38.2042813" lon="15.4906772"><ele>606.4</ele><time>2026-03-26T10:54:24.754Z</time></trkpt><trkpt lat="38.2043538" lon="15.4906706"><ele>605.5999999999999</ele><time>2026-03-26T10:54:25.754Z</time></trkpt><trkpt lat="38.2044687" lon="15.4906777"><ele>604.8</ele><time>2026-03-26T10:54:27.753Z</time></trkpt><trkpt lat="38.2045767" lon="15.490688"><ele>604.0</ele><time>2026-03-26T10:54:29.754Z</time></trkpt><trkpt lat="38.2046399" lon="15.4906979"><ele>604.0</ele><time>2026-03-26T10:54:30.754Z</time></trkpt><trkpt lat="38.2047644" lon="15.4907141"><ele>604.0</ele><time>2026-03-26T10:54:32.754Z</time></trkpt><trkpt lat="38.2048278" lon="15.4907278"><ele>604.0</ele><time>2026-03-26T10:54:33.754Z</time></trkpt><trkpt lat="38.2048921" lon="15.4907463"><ele>604.0</ele><time>2026-03-26T10:54:34.753Z</time></trkpt><trkpt lat="38.2050315" lon="15.490791"><ele>604.0</ele><time>2026-03-26T10:54:36.754Z</time></trkpt><trkpt lat="38.2051092" lon="15.4908419"><ele>606.0</ele><time>2026-03-26T10:54:38.754Z</time></trkpt><trkpt lat="38.2051764" lon="15.4908999"><ele>608.0</ele><time>2026-03-26T10:54:40.752Z</time></trkpt><trkpt lat="38.2052573" lon="15.4909927"><ele>610.0</ele><time>2026-03-26T10:54:42.752Z</time></trkpt><trkpt lat="38.2053355" lon="15.4911302"><ele>612.0</ele><time>2026-03-26T10:54:44.753Z</time></trkpt><trkpt lat="38.2053844" lon="15.4912195"><ele>614.0</ele><time>2026-03-26T10:54:45.754Z</time></trkpt><trkpt lat="38.2054273" lon="15.4913062"><ele>614.0</ele><time>2026-03-26T10:54:46.754Z</time></trkpt><trkpt lat="38.2055106" lon="15.491412"><ele>614.0</ele><time>2026-03-26T10:54:48.754Z</time></trkpt><trkpt lat="38.2056104" lon="15.4915302"><ele>614.0</ele><time>2026-03-26T10:54:50.753Z</time></trkpt><trkpt lat="38.2056865" lon="15.4916298"><ele>614.0</ele><time>2026-03-26T10:54:52.754Z</time></trkpt><trkpt lat="38.205796" lon="15.4916953"><ele>610.0</ele><time>2026-03-26T10:54:54.753Z</time></trkpt><trkpt lat="38.2059429" lon="15.4917124"><ele>606.0</ele><time>2026-03-26T10:54:56.753Z</time></trkpt><trkpt lat="38.2060273" lon="15.4916394"><ele>602.0</ele><time>2026-03-26T10:54:58.753Z</time></trkpt><trkpt lat="38.2061147" lon="15.4915954"><ele>598.0</ele><time>2026-03-26T10:55:00.754Z</time></trkpt><trkpt lat="38.2061565" lon="15.4915189"><ele>594.0</ele><time>2026-03-26T10:55:03.753Z</time></trkpt><trkpt lat="38.20611" lon="15.4914373"><ele>594.0</ele><time>2026-03-26T10:55:07.754Z</time></trkpt><trkpt lat="38.2060435" lon="15.4914441"><ele>594.0</ele><time>2026-03-26T10:55:09.753Z</time></trkpt><trkpt lat="38.2059733" lon="15.4914657"><ele>594.0</ele><time>2026-03-26T10:55:11.753Z</time></trkpt><trkpt lat="38.2059077" lon="15.491521"><ele>594.0</ele><time>2026-03-26T10:55:14.753Z</time></trkpt><trkpt lat="38.205853" lon="15.4914807"><ele>594.0</ele><time>2026-03-26T10:55:17.754Z</time></trkpt><trkpt lat="38.2058586" lon="15.4913935"><ele>594.0</ele><time>2026-03-26T10:55:19.754Z</time></trkpt><trkpt lat="38.205893" lon="15.4913176"><ele>594.0</ele><time>2026-03-26T10:55:21.754Z</time></trkpt><trkpt lat="38.2059594" lon="15.4912635"><ele>594.0</ele><time>2026-03-26T10:55:23.753Z</time></trkpt><trkpt lat="38.2060137" lon="15.4912193"><ele>594.0</ele><time>2026-03-26T10:55:25.754Z</time></trkpt><trkpt lat="38.2060867" lon="15.4911746"><ele>594.0</ele><time>2026-03-26T10:55:27.753Z</time></trkpt><trkpt lat="38.2061594" lon="15.4911587"><ele>594.0</ele><time>2026-03-26T10:55:29.752Z</time></trkpt><trkpt lat="38.2062488" lon="15.4911871"><ele>594.0</ele><time>2026-03-26T10:55:31.753Z</time></trkpt><trkpt lat="38.2063482" lon="15.4912768"><ele>594.0</ele><time>2026-03-26T10:55:33.753Z</time></trkpt><trkpt lat="38.2064771" lon="15.4913447"><ele>590.6</ele><time>2026-03-26T10:55:35.753Z</time></trkpt><trkpt lat="38.2065852" lon="15.491348"><ele>587.2</ele><time>2026-03-26T10:55:37.754Z</time></trkpt><trkpt lat="38.2066765" lon="15.4913226"><ele>583.8000000000001</ele><time>2026-03-26T10:55:39.753Z</time></trkpt><trkpt lat="38.206771" lon="15.4912836"><ele>580.4</ele><time>2026-03-26T10:55:41.753Z</time></trkpt><trkpt lat="38.2068395" lon="15.4912606"><ele>577.0</ele><time>2026-03-26T10:55:53.754Z</time></trkpt><trkpt lat="38.2069189" lon="15.4912683"><ele>577.0</ele><time>2026-03-26T10:56:24.753Z</time></trkpt><trkpt lat="38.2069932" lon="15.4912889"><ele>577.0</ele><time>2026-03-26T10:56:27.753Z</time></trkpt><trkpt lat="38.2070616" lon="15.4912497"><ele>577.0</ele><time>2026-03-26T10:56:30.753Z</time></trkpt><trkpt lat="38.2071211" lon="15.4911979"><ele>577.0</ele><time>2026-03-26T10:56:32.753Z</time></trkpt><trkpt lat="38.2071867" lon="15.4911507"><ele>577.0</ele><time>2026-03-26T10:56:35.753Z</time></trkpt><trkpt lat="38.2072466" lon="15.4911901"><ele>577.0</ele><time>2026-03-26T10:56:39.753Z</time></trkpt><trkpt lat="38.207261" lon="15.4912867"><ele>577.0</ele><time>2026-03-26T10:56:42.753Z</time></trkpt><trkpt lat="38.2072437" lon="15.491375"><ele>577.0</ele><time>2026-03-26T10:56:43.753Z</time></trkpt><trkpt lat="38.2072284" lon="15.4914995"><ele>577.0</ele><time>2026-03-26T10:56:45.754Z</time></trkpt><trkpt lat="38.2072108" lon="15.4915875"><ele>577.0</ele><time>2026-03-26T10:56:47.753Z</time></trkpt><trkpt lat="38.2071954" lon="15.491668"><ele>577.0</ele><time>2026-03-26T10:56:49.754Z</time></trkpt><trkpt lat="38.2072157" lon="15.4917484"><ele>577.0</ele><time>2026-03-26T10:56:52.753Z</time></trkpt><trkpt lat="38.2072919" lon="15.491728"><ele>577.0</ele><time>2026-03-26T10:56:55.752Z</time></trkpt><trkpt lat="38.2073323" lon="15.4916574"><ele>577.0</ele><time>2026-03-26T10:56:57.753Z</time></trkpt><trkpt lat="38.2073477" lon="15.4915749"><ele>572.0</ele><time>2026-03-26T10:57:02.753Z</time></trkpt><trkpt lat="38.2073919" lon="15.4914608"><ele>567.0</ele><time>2026-03-26T11:00:19.755Z</time></trkpt><trkpt lat="38.2074134" lon="15.4913658"><ele>562.0</ele><time>2026-03-26T11:00:20.755Z</time></trkpt><trkpt lat="38.2074587" lon="15.491243"><ele>557.0</ele><time>2026-03-26T11:00:22.754Z</time></trkpt><trkpt lat="38.207525" lon="15.4911326"><ele>552.0</ele><time>2026-03-26T11:00:24.755Z</time></trkpt><trkpt lat="38.2075864" lon="15.4910354"><ele>552.0</ele><time>2026-03-26T11:00:26.754Z</time></trkpt><trkpt lat="38.207585" lon="15.4909478"><ele>552.0</ele><time>2026-03-26T11:00:28.754Z</time></trkpt><trkpt lat="38.2075318" lon="15.490864"><ele>552.0</ele><time>2026-03-26T11:00:31.755Z</time></trkpt><trkpt lat="38.2074181" lon="15.490832"><ele>552.0</ele><time>2026-03-26T11:00:34.754Z</time></trkpt><trkpt lat="38.2073102" lon="15.4908076"><ele>552.0</ele><time>2026-03-26T11:00:36.754Z</time></trkpt><trkpt lat="38.2072024" lon="15.4907773"><ele>552.0</ele><time>2026-03-26T11:00:38.755Z</time></trkpt><trkpt lat="38.2070843" lon="15.4907536"><ele>552.0</ele><time>2026-03-26T11:00:40.754Z</time></trkpt><trkpt lat="38.2070069" lon="15.4907708"><ele>552.0</ele><time>2026-03-26T11:00:42.754Z</time></trkpt><trkpt lat="38.2069277" lon="15.4907711"><ele>552.0</ele><time>2026-03-26T11:00:44.753Z</time></trkpt><trkpt lat="38.2068375" lon="15.4907378"><ele>552.0</ele><time>2026-03-26T11:00:46.754Z</time></trkpt><trkpt lat="38.2067517" lon="15.4906465"><ele>552.0</ele><time>2026-03-26T11:00:48.755Z</time></trkpt><trkpt lat="38.2067139" lon="15.4905702"><ele>552.0</ele><time>2026-03-26T11:00:49.754Z</time></trkpt><trkpt lat="38.2066806" lon="15.4905019"><ele>552.0</ele><time>2026-03-26T11:00:50.754Z</time></trkpt><trkpt lat="38.2066271" lon="15.4903712"><ele>552.0</ele><time>2026-03-26T11:00:52.755Z</time></trkpt><trkpt lat="38.2065816" lon="15.490304"><ele>552.0</ele><time>2026-03-26T11:00:53.754Z</time></trkpt><trkpt lat="38.2065075" lon="15.4902435"><ele>552.0</ele><time>2026-03-26T11:00:55.754Z</time></trkpt><trkpt lat="38.2064399" lon="15.4902014"><ele>550.3333333333334</ele><time>2026-03-26T11:00:57.754Z</time></trkpt><trkpt lat="38.2063783" lon="15.490131"><ele>548.6666666666666</ele><time>2026-03-26T11:01:00.755Z</time></trkpt><trkpt lat="38.2063665" lon="15.4900451"><ele>547.0</ele><time>2026-03-26T11:01:02.755Z</time></trkpt><trkpt lat="38.2063658" lon="15.4899563"><ele>545.3333333333333</ele><time>2026-03-26T11:01:03.754Z</time></trkpt><trkpt lat="38.2063274" lon="15.4898702"><ele>543.6666666666666</ele><time>2026-03-26T11:01:05.754Z</time></trkpt><trkpt lat="38.2062532" lon="15.4897637"><ele>542.0</ele><time>2026-03-26T11:01:07.754Z</time></trkpt><trkpt lat="38.2061961" lon="15.489724"><ele>542.0</ele><time>2026-03-26T11:01:08.754Z</time></trkpt><trkpt lat="38.206108" lon="15.4896284"><ele>542.0</ele><time>2026-03-26T11:01:10.755Z</time></trkpt><trkpt lat="38.2060207" lon="15.4895199"><ele>542.0</ele><time>2026-03-26T11:01:12.754Z</time></trkpt><trkpt lat="38.2059227" lon="15.4894657"><ele>542.0</ele><time>2026-03-26T11:01:14.755Z</time></trkpt><trkpt lat="38.2058164" lon="15.4894276"><ele>541.0</ele><time>2026-03-26T11:01:16.754Z</time></trkpt><trkpt lat="38.2057655" lon="15.4894754"><ele>540.0</ele><time>2026-03-26T11:01:17.754Z</time></trkpt><trkpt lat="38.2056434" lon="15.4894518"><ele>539.0</ele><time>2026-03-26T11:01:19.754Z</time></trkpt><trkpt lat="38.2055732" lon="15.4894293"><ele>538.0</ele><time>2026-03-26T11:01:20.755Z</time></trkpt><trkpt lat="38.2055123" lon="15.4893976"><ele>537.0</ele><time>2026-03-26T11:01:21.755Z</time></trkpt><trkpt lat="38.2054336" lon="15.4893569"><ele>536.0</ele><time>2026-03-26T11:01:22.754Z</time></trkpt><trkpt lat="38.2053709" lon="15.4893329"><ele>536.0</ele><time>2026-03-26T11:01:23.754Z</time></trkpt><trkpt lat="38.2052874" lon="15.4892479"><ele>536.0</ele><time>2026-03-26T11:01:25.755Z</time></trkpt><trkpt lat="38.205234" lon="15.4891933"><ele>536.0</ele><time>2026-03-26T11:01:26.754Z</time></trkpt><trkpt lat="38.2051405" lon="15.48913"><ele>536.0</ele><time>2026-03-26T11:01:28.755Z</time></trkpt><trkpt lat="38.2050779" lon="15.48911"><ele>536.0</ele><time>2026-03-26T11:01:29.755Z</time></trkpt><trkpt lat="38.2050068" lon="15.4890716"><ele>536.0</ele><time>2026-03-26T11:01:30.754Z</time></trkpt><trkpt lat="38.204945" lon="15.4890462"><ele>536.0</ele><time>2026-03-26T11:01:31.754Z</time></trkpt><trkpt lat="38.2048844" lon="15.4890195"><ele>536.0</ele><time>2026-03-26T11:01:32.754Z</time></trkpt><trkpt lat="38.2048131" lon="15.4889479"><ele>536.0</ele><time>2026-03-26T11:01:33.754Z</time></trkpt><trkpt lat="38.204746" lon="15.4888809"><ele>536.0</ele><time>2026-03-26T11:01:34.753Z</time></trkpt><trkpt lat="38.2047014" lon="15.4888135"><ele>536.0</ele><time>2026-03-26T11:01:35.755Z</time></trkpt><trkpt lat="38.2046374" lon="15.4887525"><ele>536.0</ele><time>2026-03-26T11:01:36.754Z</time></trkpt><trkpt lat="38.2045562" lon="15.4886211"><ele>534.1666666666666</ele><time>2026-03-26T11:01:38.755Z</time></trkpt><trkpt lat="38.2045016" lon="15.4885433"><ele>532.3333333333333</ele><time>2026-03-26T11:01:40.753Z</time></trkpt><trkpt lat="38.2044751" lon="15.4884208"><ele>530.5</ele><time>2026-03-26T11:01:42.755Z</time></trkpt><trkpt lat="38.2045186" lon="15.4883056"><ele>528.6666666666666</ele><time>2026-03-26T11:01:44.754Z</time></trkpt><trkpt lat="38.2045482" lon="15.488229"><ele>526.8333333333334</ele><time>2026-03-26T11:01:45.755Z</time></trkpt><trkpt lat="38.2045767" lon="15.4881526"><ele>525.0</ele><time>2026-03-26T11:01:46.754Z</time></trkpt><trkpt lat="38.2046426" lon="15.488033"><ele>525.0</ele><time>2026-03-26T11:01:48.754Z</time></trkpt><trkpt lat="38.2046779" lon="15.4879541"><ele>525.0</ele><time>2026-03-26T11:01:49.755Z</time></trkpt><trkpt lat="38.2047088" lon="15.4878799"><ele>525.0</ele><time>2026-03-26T11:01:50.755Z</time></trkpt><trkpt lat="38.204747" lon="15.4878109"><ele>525.0</ele><time>2026-03-26T11:01:51.755Z</time></trkpt><trkpt lat="38.2047801" lon="15.487738"><ele>525.0</ele><time>2026-03-26T11:01:52.754Z</time></trkpt><trkpt lat="38.2048291" lon="15.487619"><ele>525.0</ele><time>2026-03-26T11:01:54.753Z</time></trkpt><trkpt lat="38.2049117" lon="15.4875258"><ele>520.8</ele><time>2026-03-26T11:01:56.754Z</time></trkpt><trkpt lat="38.2049859" lon="15.48743"><ele>516.6</ele><time>2026-03-26T11:01:58.754Z</time></trkpt><trkpt lat="38.205031" lon="15.4873736"><ele>512.4</ele><time>2026-03-26T11:01:59.755Z</time></trkpt><trkpt lat="38.2051087" lon="15.4872701"><ele>508.2</ele><time>2026-03-26T11:02:01.754Z</time></trkpt><trkpt lat="38.205165" lon="15.4871746"><ele>504.0</ele><time>2026-03-26T11:02:03.755Z</time></trkpt><trkpt lat="38.2052227" lon="15.4870567"><ele>500.6</ele><time>2026-03-26T11:02:05.754Z</time></trkpt><trkpt lat="38.205253" lon="15.4869397"><ele>497.2</ele><time>2026-03-26T11:02:07.755Z</time></trkpt><trkpt lat="38.2052779" lon="15.4868605"><ele>493.80000000000007</ele><time>2026-03-26T11:02:08.755Z</time></trkpt><trkpt lat="38.2053056" lon="15.486728"><ele>490.40000000000003</ele><time>2026-03-26T11:02:10.754Z</time></trkpt><trkpt lat="38.2053367" lon="15.4865982"><ele>487.0</ele><time>2026-03-26T11:02:12.755Z</time></trkpt><trkpt lat="38.2053909" lon="15.4865126"><ele>487.00000000000006</ele><time>2026-03-26T11:02:14.755Z</time></trkpt><trkpt lat="38.205439" lon="15.4864094"><ele>487.0</ele><time>2026-03-26T11:02:16.755Z</time></trkpt><trkpt lat="38.2054482" lon="15.4862993"><ele>487.0</ele><time>2026-03-26T11:02:18.755Z</time></trkpt><trkpt lat="38.2054095" lon="15.4861944"><ele>487.0</ele><time>2026-03-26T11:02:21.754Z</time></trkpt><trkpt lat="38.2053521" lon="15.4861093"><ele>487.00000000000006</ele><time>2026-03-26T11:02:23.754Z</time></trkpt><trkpt lat="38.205302" lon="15.4860476"><ele>487.0</ele><time>2026-03-26T11:02:24.755Z</time></trkpt><trkpt lat="38.2052558" lon="15.4859286"><ele>483.8</ele><time>2026-03-26T11:02:26.754Z</time></trkpt><trkpt lat="38.2052644" lon="15.4858114"><ele>480.6</ele><time>2026-03-26T11:02:28.754Z</time></trkpt><trkpt lat="38.2053199" lon="15.4857379"><ele>477.40000000000003</ele><time>2026-03-26T11:02:30.755Z</time></trkpt><trkpt lat="38.2053805" lon="15.4856531"><ele>474.20000000000005</ele><time>2026-03-26T11:02:32.754Z</time></trkpt><trkpt lat="38.2053995" lon="15.4855305"><ele>471.0</ele><time>2026-03-26T11:02:34.754Z</time></trkpt><trkpt lat="38.2053906" lon="15.485413"><ele>469.1666666666667</ele><time>2026-03-26T11:02:36.754Z</time></trkpt><trkpt lat="38.2053786" lon="15.4853123"><ele>467.33333333333337</ele><time>2026-03-26T11:02:38.754Z</time></trkpt><trkpt lat="38.2053504" lon="15.485212"><ele>465.5</ele><time>2026-03-26T11:02:41.754Z</time></trkpt><trkpt lat="38.2053362" lon="15.4851227"><ele>463.6666666666667</ele><time>2026-03-26T11:02:44.755Z</time></trkpt><trkpt lat="38.2053646" lon="15.4850508"><ele>461.83333333333337</ele><time>2026-03-26T11:02:47.754Z</time></trkpt><trkpt lat="38.205443" lon="15.4850509"><ele>460.0</ele><time>2026-03-26T11:02:50.755Z</time></trkpt><trkpt lat="38.2055089" lon="15.4850918"><ele>460.0</ele><time>2026-03-26T11:02:52.754Z</time></trkpt><trkpt lat="38.2056191" lon="15.4850926"><ele>460.0</ele><time>2026-03-26T11:02:54.754Z</time></trkpt><trkpt lat="38.2057184" lon="15.4850703"><ele>460.0</ele><time>2026-03-26T11:02:56.755Z</time></trkpt><trkpt lat="38.2058242" lon="15.4850546"><ele>460.0</ele><time>2026-03-26T11:02:58.754Z</time></trkpt><trkpt lat="38.2058996" lon="15.4850456"><ele>460.0</ele><time>2026-03-26T11:03:00.753Z</time></trkpt><trkpt lat="38.2059846" lon="15.4851017"><ele>460.50000000000006</ele><time>2026-03-26T11:03:03.754Z</time></trkpt><trkpt lat="38.2060293" lon="15.4851727"><ele>461.0</ele><time>2026-03-26T11:03:05.755Z</time></trkpt><trkpt lat="38.2060595" lon="15.4852664"><ele>461.5</ele><time>2026-03-26T11:03:07.754Z</time></trkpt><trkpt lat="38.206091" lon="15.4853496"><ele>462.0</ele><time>2026-03-26T11:03:10.755Z</time></trkpt><trkpt lat="38.2061577" lon="15.4852848"><ele>462.50000000000006</ele><time>2026-03-26T11:03:13.755Z</time></trkpt><trkpt lat="38.2061811" lon="15.4852046"><ele>463.0</ele><time>2026-03-26T11:03:15.755Z</time></trkpt><trkpt lat="38.2061916" lon="15.4850965"><ele>463.00000000000006</ele><time>2026-03-26T11:03:17.755Z</time></trkpt><trkpt lat="38.2062201" lon="15.4850082"><ele>463.0</ele><time>2026-03-26T11:03:19.754Z</time></trkpt><trkpt lat="38.2062479" lon="15.4849229"><ele>463.0</ele><time>2026-03-26T11:03:21.755Z</time></trkpt><trkpt lat="38.2063143" lon="15.4848548"><ele>463.0</ele><time>2026-03-26T11:03:23.755Z</time></trkpt><trkpt lat="38.2063966" lon="15.4847897"><ele>463.00000000000006</ele><time>2026-03-26T11:03:25.755Z</time></trkpt><trkpt lat="38.2064593" lon="15.4847086"><ele>463.0</ele><time>2026-03-26T11:03:27.754Z</time></trkpt><trkpt lat="38.2065176" lon="15.4846136"><ele>456.6666666666667</ele><time>2026-03-26T11:03:29.754Z</time></trkpt><trkpt lat="38.2065774" lon="15.4845255"><ele>450.33333333333337</ele><time>2026-03-26T11:03:31.754Z</time></trkpt><trkpt lat="38.2066186" lon="15.4844418"><ele>444.0</ele><time>2026-03-26T11:03:33.755Z</time></trkpt><trkpt lat="38.2066786" lon="15.4843568"><ele>437.66666666666663</ele><time>2026-03-26T11:03:36.754Z</time></trkpt><trkpt lat="38.2067452" lon="15.4843391"><ele>431.3333333333333</ele><time>2026-03-26T11:03:39.755Z</time></trkpt><trkpt lat="38.2067452" lon="15.4844433"><ele>425.0</ele><time>2026-03-26T11:03:42.755Z</time></trkpt><trkpt lat="38.2066978" lon="15.4844996"><ele>424.99999999999994</ele><time>2026-03-26T11:03:43.754Z</time></trkpt><trkpt lat="38.2066535" lon="15.4845585"><ele>425.0</ele><time>2026-03-26T11:03:44.755Z</time></trkpt><trkpt lat="38.2065866" lon="15.484647"><ele>425.0</ele><time>2026-03-26T11:03:46.755Z</time></trkpt><trkpt lat="38.2065828" lon="15.4847398"><ele>425.0</ele><time>2026-03-26T11:03:49.756Z</time></trkpt><trkpt lat="38.2066037" lon="15.4848327"><ele>424.99999999999994</ele><time>2026-03-26T11:03:52.755Z</time></trkpt><trkpt lat="38.2066232" lon="15.4849585"><ele>425.0</ele><time>2026-03-26T11:03:55.755Z</time></trkpt><trkpt lat="38.2066172" lon="15.4850413"><ele>426.66666666666663</ele><time>2026-03-26T11:03:58.755Z</time></trkpt><trkpt lat="38.2066181" lon="15.4851269"><ele>428.3333333333333</ele><time>2026-03-26T11:04:00.755Z</time></trkpt><trkpt lat="38.2066347" lon="15.4852445"><ele>430.0</ele><time>2026-03-26T11:04:02.756Z</time></trkpt><trkpt lat="38.2066248" lon="15.4853717"><ele>431.66666666666663</ele><time>2026-03-26T11:04:04.756Z</time></trkpt><trkpt lat="38.2065984" lon="15.4854697"><ele>433.3333333333333</ele><time>2026-03-26T11:04:06.755Z</time></trkpt><trkpt lat="38.2065421" lon="15.4855561"><ele>435.0</ele><time>2026-03-26T11:04:08.755Z</time></trkpt><trkpt lat="38.2064702" lon="15.4856617"><ele>442.2</ele><time>2026-03-26T11:04:10.756Z</time></trkpt><trkpt lat="38.2064291" lon="15.4857232"><ele>449.4</ele><time>2026-03-26T11:04:11.756Z</time></trkpt><trkpt lat="38.2063844" lon="15.4858437"><ele>456.6</ele><time>2026-03-26T11:04:13.755Z</time></trkpt><trkpt lat="38.2063587" lon="15.4860012"><ele>463.8</ele><time>2026-03-26T11:04:15.755Z</time></trkpt><trkpt lat="38.206321" lon="15.4861722"><ele>471.0</ele><time>2026-03-26T11:04:17.755Z</time></trkpt><trkpt lat="38.2063283" lon="15.4862701"><ele>472.3333333333333</ele><time>2026-03-26T11:04:19.755Z</time></trkpt><trkpt lat="38.2063477" lon="15.486379"><ele>473.66666666666663</ele><time>2026-03-26T11:04:21.756Z</time></trkpt><trkpt lat="38.2064056" lon="15.4864279"><ele>475.0</ele><time>2026-03-26T11:04:23.756Z</time></trkpt><trkpt lat="38.2064894" lon="15.4864857"><ele>476.3333333333333</ele><time>2026-03-26T11:04:25.756Z</time></trkpt><trkpt lat="38.20656" lon="15.4865415"><ele>477.66666666666663</ele><time>2026-03-26T11:04:27.755Z</time></trkpt><trkpt lat="38.2066379" lon="15.4865865"><ele>479.0</ele><time>2026-03-26T11:04:29.755Z</time></trkpt><trkpt lat="38.2067596" lon="15.4865356"><ele>472.25</ele><time>2026-03-26T11:04:31.755Z</time></trkpt><trkpt lat="38.2068477" lon="15.4864565"><ele>465.5</ele><time>2026-03-26T11:04:33.756Z</time></trkpt><trkpt lat="38.2069323" lon="15.48644"><ele>458.75</ele><time>2026-03-26T11:04:35.756Z</time></trkpt><trkpt lat="38.2070013" lon="15.4865795"><ele>452.0</ele><time>2026-03-26T11:04:38.755Z</time></trkpt><trkpt lat="38.207046" lon="15.4867438"><ele>452.0</ele><time>2026-03-26T11:04:40.756Z</time></trkpt><trkpt lat="38.2070804" lon="15.4868115"><ele>452.00000000000006</ele><time>2026-03-26T11:04:41.755Z</time></trkpt><trkpt lat="38.2071219" lon="15.4868783"><ele>452.00000000000006</ele><time>2026-03-26T11:04:42.756Z</time></trkpt><trkpt lat="38.2072333" lon="15.4869611"><ele>452.0</ele><time>2026-03-26T11:04:44.756Z</time></trkpt><trkpt lat="38.2073689" lon="15.486979"><ele>452.0</ele><time>2026-03-26T11:04:46.755Z</time></trkpt><trkpt lat="38.2074395" lon="15.4870018"><ele>452.8333333333333</ele><time>2026-03-26T11:04:47.754Z</time></trkpt><trkpt lat="38.2075092" lon="15.4869755"><ele>453.66666666666663</ele><time>2026-03-26T11:04:48.755Z</time></trkpt><trkpt lat="38.2076119" lon="15.487006"><ele>454.5</ele><time>2026-03-26T11:04:50.756Z</time></trkpt><trkpt lat="38.2076746" lon="15.4870543"><ele>455.33333333333337</ele><time>2026-03-26T11:04:51.756Z</time></trkpt><trkpt lat="38.2077344" lon="15.4870943"><ele>456.1666666666667</ele><time>2026-03-26T11:04:52.755Z</time></trkpt><trkpt lat="38.2078366" lon="15.4871627"><ele>457.0</ele><time>2026-03-26T11:04:54.756Z</time></trkpt><trkpt lat="38.2079306" lon="15.4872318"><ele>457.00000000000006</ele><time>2026-03-26T11:04:56.755Z</time></trkpt><trkpt lat="38.208037" lon="15.4873007"><ele>457.0</ele><time>2026-03-26T11:04:58.755Z</time></trkpt><trkpt lat="38.2080962" lon="15.4873466"><ele>457.0</ele><time>2026-03-26T11:04:59.754Z</time></trkpt><trkpt lat="38.2081581" lon="15.4873767"><ele>457.0</ele><time>2026-03-26T11:05:00.754Z</time></trkpt><trkpt lat="38.2082355" lon="15.4873835"><ele>457.00000000000006</ele><time>2026-03-26T11:05:01.755Z</time></trkpt><trkpt lat="38.2082983" lon="15.4873978"><ele>457.0</ele><time>2026-03-26T11:05:02.755Z</time></trkpt><trkpt lat="38.2084073" lon="15.4874373"><ele>454.8</ele><time>2026-03-26T11:05:04.755Z</time></trkpt><trkpt lat="38.2085105" lon="15.4874675"><ele>452.6</ele><time>2026-03-26T11:05:06.756Z</time></trkpt><trkpt lat="38.2085919" lon="15.4875156"><ele>450.40000000000003</ele><time>2026-03-26T11:05:08.754Z</time></trkpt><trkpt lat="38.2087072" lon="15.4876026"><ele>448.20000000000005</ele><time>2026-03-26T11:05:10.756Z</time></trkpt><trkpt lat="38.208772" lon="15.4876363"><ele>446.0</ele><time>2026-03-26T11:05:11.756Z</time></trkpt><trkpt lat="38.2088432" lon="15.4876661"><ele>445.99999999999994</ele><time>2026-03-26T11:05:12.754Z</time></trkpt><trkpt lat="38.2089344" lon="15.4875876"><ele>446.0</ele><time>2026-03-26T11:05:13.756Z</time></trkpt><trkpt lat="38.208996" lon="15.4875356"><ele>446.0</ele><time>2026-03-26T11:05:14.756Z</time></trkpt><trkpt lat="38.2090504" lon="15.4874784"><ele>446.0</ele><time>2026-03-26T11:05:15.755Z</time></trkpt><trkpt lat="38.2091083" lon="15.4874301"><ele>445.99999999999994</ele><time>2026-03-26T11:05:16.755Z</time></trkpt><trkpt lat="38.2091964" lon="15.4874073"><ele>446.0</ele><time>2026-03-26T11:05:17.756Z</time></trkpt><trkpt lat="38.2092704" lon="15.4874039"><ele>445.8333333333333</ele><time>2026-03-26T11:05:18.755Z</time></trkpt><trkpt lat="38.2093657" lon="15.4874111"><ele>445.66666666666663</ele><time>2026-03-26T11:05:19.755Z</time></trkpt><trkpt lat="38.2094829" lon="15.4873647"><ele>445.5</ele><time>2026-03-26T11:05:21.756Z</time></trkpt><trkpt lat="38.2095444" lon="15.4873288"><ele>445.33333333333337</ele><time>2026-03-26T11:05:22.755Z</time></trkpt><trkpt lat="38.2096065" lon="15.4872942"><ele>445.1666666666667</ele><time>2026-03-26T11:05:23.756Z</time></trkpt><trkpt lat="38.209672" lon="15.4872491"><ele>445.0</ele><time>2026-03-26T11:05:24.755Z</time></trkpt><trkpt lat="38.2097575" lon="15.4871486"><ele>442.50000000000006</ele><time>2026-03-26T11:05:26.754Z</time></trkpt><trkpt lat="38.2098482" lon="15.4871406"><ele>440.0</ele><time>2026-03-26T11:05:29.755Z</time></trkpt><trkpt lat="38.209908" lon="15.4872638"><ele>437.5</ele><time>2026-03-26T11:05:31.755Z</time></trkpt><trkpt lat="38.2099119" lon="15.4873478"><ele>435.0</ele><time>2026-03-26T11:05:32.755Z</time></trkpt><trkpt lat="38.2098832" lon="15.4874377"><ele>432.50000000000006</ele><time>2026-03-26T11:05:33.756Z</time></trkpt><trkpt lat="38.2098694" lon="15.4875227"><ele>430.0</ele><time>2026-03-26T11:05:34.755Z</time></trkpt><trkpt lat="38.2098508" lon="15.4876052"><ele>432.2</ele><time>2026-03-26T11:05:35.755Z</time></trkpt><trkpt lat="38.2098177" lon="15.4877303"><ele>434.4</ele><time>2026-03-26T11:05:37.756Z</time></trkpt><trkpt lat="38.2097966" lon="15.4878695"><ele>436.6</ele><time>2026-03-26T11:05:39.755Z</time></trkpt><trkpt lat="38.2097948" lon="15.487952"><ele>438.8</ele><time>2026-03-26T11:05:40.756Z</time></trkpt><trkpt lat="38.2098231" lon="15.488027"><ele>441.0</ele><time>2026-03-26T11:05:41.755Z</time></trkpt><trkpt lat="38.2098576" lon="15.4881703"><ele>441.0</ele><time>2026-03-26T11:05:43.756Z</time></trkpt><trkpt lat="38.2098667" lon="15.4882563"><ele>441.0</ele><time>2026-03-26T11:05:45.756Z</time></trkpt><trkpt lat="38.2098801" lon="15.4883491"><ele>441.0</ele><time>2026-03-26T11:05:47.755Z</time></trkpt><trkpt lat="38.2098999" lon="15.4884308"><ele>441.0</ele><time>2026-03-26T11:05:49.755Z</time></trkpt><trkpt lat="38.2099613" lon="15.4884628"><ele>441.0</ele><time>2026-03-26T11:05:51.754Z</time></trkpt><trkpt lat="38.2100327" lon="15.4884342"><ele>441.0</ele><time>2026-03-26T11:05:53.756Z</time></trkpt><trkpt lat="38.2100521" lon="15.4883006"><ele>441.0</ele><time>2026-03-26T11:05:54.755Z</time></trkpt><trkpt lat="38.2100872" lon="15.4882111"><ele>441.0</ele><time>2026-03-26T11:05:55.756Z</time></trkpt><trkpt lat="38.2101264" lon="15.4881357"><ele>441.0</ele><time>2026-03-26T11:05:56.756Z</time></trkpt><trkpt lat="38.2101738" lon="15.4880551"><ele>441.0</ele><time>2026-03-26T11:05:58.755Z</time></trkpt><trkpt lat="38.2102431" lon="15.4880618"><ele>441.0</ele><time>2026-03-26T11:06:00.755Z</time></trkpt><trkpt lat="38.2102905" lon="15.4881359"><ele>441.0</ele><time>2026-03-26T11:06:03.756Z</time></trkpt><trkpt lat="38.2103231" lon="15.4882647"><ele>441.0</ele><time>2026-03-26T11:06:05.755Z</time></trkpt><trkpt lat="38.2103386" lon="15.4883465"><ele>441.0</ele><time>2026-03-26T11:06:06.756Z</time></trkpt><trkpt lat="38.2103551" lon="15.4884275"><ele>441.0</ele><time>2026-03-26T11:06:07.755Z</time></trkpt><trkpt lat="38.2103755" lon="15.4885105"><ele>441.0</ele><time>2026-03-26T11:06:08.756Z</time></trkpt><trkpt lat="38.2104261" lon="15.4885832"><ele>441.0</ele><time>2026-03-26T11:06:09.755Z</time></trkpt><trkpt lat="38.210497" lon="15.4887113"><ele>441.0</ele><time>2026-03-26T11:06:11.755Z</time></trkpt><trkpt lat="38.210538" lon="15.4887833"><ele>442.8</ele><time>2026-03-26T11:06:12.755Z</time></trkpt><trkpt lat="38.2106277" lon="15.4888901"><ele>444.6</ele><time>2026-03-26T11:06:14.756Z</time></trkpt><trkpt lat="38.2107008" lon="15.4889573"><ele>446.4</ele><time>2026-03-26T11:06:16.755Z</time></trkpt><trkpt lat="38.2108248" lon="15.4889357"><ele>448.2</ele><time>2026-03-26T11:06:18.755Z</time></trkpt><trkpt lat="38.2109015" lon="15.4889366"><ele>450.0</ele><time>2026-03-26T11:06:20.756Z</time></trkpt><trkpt lat="38.2109675" lon="15.4889556"><ele>450.0</ele><time>2026-03-26T11:06:21.756Z</time></trkpt><trkpt lat="38.2110614" lon="15.4890258"><ele>450.0</ele><time>2026-03-26T11:06:23.756Z</time></trkpt><trkpt lat="38.211113" lon="15.4891132"><ele>450.0</ele><time>2026-03-26T11:06:25.756Z</time></trkpt><trkpt lat="38.2111184" lon="15.4892014"><ele>450.0</ele><time>2026-03-26T11:06:26.755Z</time></trkpt><trkpt lat="38.2111108" lon="15.489297"><ele>450.0</ele><time>2026-03-26T11:06:27.755Z</time></trkpt><trkpt lat="38.2111778" lon="15.4895178"><ele>454.4</ele><time>2026-03-26T11:06:29.756Z</time></trkpt><trkpt lat="38.2112078" lon="15.4896222"><ele>458.8</ele><time>2026-03-26T11:06:30.755Z</time></trkpt><trkpt lat="38.211243" lon="15.4897137"><ele>463.20000000000005</ele><time>2026-03-26T11:06:31.755Z</time></trkpt><trkpt lat="38.2112769" lon="15.4898104"><ele>467.6</ele><time>2026-03-26T11:06:32.755Z</time></trkpt><trkpt lat="38.2112867" lon="15.4899262"><ele>472.0</ele><time>2026-03-26T11:06:33.755Z</time></trkpt><trkpt lat="38.21131" lon="15.4900975"><ele>472.00000000000006</ele><time>2026-03-26T11:06:35.755Z</time></trkpt><trkpt lat="38.2113137" lon="15.4901944"><ele>472.0</ele><time>2026-03-26T11:06:36.756Z</time></trkpt><trkpt lat="38.2113071" lon="15.4903089"><ele>472.0</ele><time>2026-03-26T11:06:37.756Z</time></trkpt><trkpt lat="38.2113287" lon="15.4904077"><ele>472.0</ele><time>2026-03-26T11:06:38.755Z</time></trkpt><trkpt lat="38.2113215" lon="15.4905068"><ele>472.00000000000006</ele><time>2026-03-26T11:06:40.755Z</time></trkpt><trkpt lat="38.2113163" lon="15.4906185"><ele>472.0</ele><time>2026-03-26T11:06:42.756Z</time></trkpt><trkpt lat="38.2112962" lon="15.4907016"><ele>472.0</ele><time>2026-03-26T11:06:44.756Z</time></trkpt><trkpt lat="38.2111954" lon="15.4906"><ele>472.0</ele><time>2026-03-26T11:06:47.756Z</time></trkpt><trkpt lat="38.2111503" lon="15.4905223"><ele>472.0</ele><time>2026-03-26T11:06:49.756Z</time></trkpt><trkpt lat="38.2112174" lon="15.490344"><ele>472.0</ele><time>2026-03-26T11:06:51.755Z</time></trkpt><trkpt lat="38.211193" lon="15.4901929"><ele>472.00000000000006</ele><time>2026-03-26T11:06:53.756Z</time></trkpt><trkpt lat="38.2111945" lon="15.4901106"><ele>472.0</ele><time>2026-03-26T11:06:54.756Z</time></trkpt><trkpt lat="38.2111419" lon="15.490037"><ele>472.0</ele><time>2026-03-26T11:06:55.755Z</time></trkpt><trkpt lat="38.2111114" lon="15.4899481"><ele>472.0</ele><time>2026-03-26T11:06:56.755Z</time></trkpt><trkpt lat="38.2110615" lon="15.489886"><ele>472.00000000000006</ele><time>2026-03-26T11:06:57.755Z</time></trkpt><trkpt lat="38.2109996" lon="15.4897694"><ele>472.0</ele><time>2026-03-26T11:06:59.756Z</time></trkpt><trkpt lat="38.2108937" lon="15.4896839"><ele>472.0</ele><time>2026-03-26T11:07:01.756Z</time></trkpt><trkpt lat="38.2108331" lon="15.4896435"><ele>472.00000000000006</ele><time>2026-03-26T11:07:02.756Z</time></trkpt><trkpt lat="38.2107404" lon="15.489574"><ele>472.00000000000006</ele><time>2026-03-26T11:07:03.755Z</time></trkpt><trkpt lat="38.2106726" lon="15.4895168"><ele>472.0</ele><time>2026-03-26T11:07:04.755Z</time></trkpt><trkpt lat="38.2105903" lon="15.4894341"><ele>472.0</ele><time>2026-03-26T11:07:05.755Z</time></trkpt><trkpt lat="38.2105155" lon="15.4893628"><ele>469.6</ele><time>2026-03-26T11:07:06.755Z</time></trkpt><trkpt lat="38.2104485" lon="15.489293"><ele>467.20000000000005</ele><time>2026-03-26T11:07:07.756Z</time></trkpt><trkpt lat="38.2103773" lon="15.489236"><ele>464.8</ele><time>2026-03-26T11:07:08.755Z</time></trkpt><trkpt lat="38.2103049" lon="15.4891984"><ele>462.4</ele><time>2026-03-26T11:07:10.756Z</time></trkpt><trkpt lat="38.2102134" lon="15.4892173"><ele>460.0</ele><time>2026-03-26T11:07:12.756Z</time></trkpt><trkpt lat="38.2101105" lon="15.4892863"><ele>460.00000000000006</ele><time>2026-03-26T11:07:14.755Z</time></trkpt><trkpt lat="38.2100657" lon="15.4893703"><ele>460.0</ele><time>2026-03-26T11:07:15.756Z</time></trkpt><trkpt lat="38.2100243" lon="15.4894425"><ele>460.0</ele><time>2026-03-26T11:07:16.756Z</time></trkpt><trkpt lat="38.2099834" lon="15.4895447"><ele>460.0</ele><time>2026-03-26T11:07:17.756Z</time></trkpt><trkpt lat="38.2099472" lon="15.4896309"><ele>460.00000000000006</ele><time>2026-03-26T11:07:18.756Z</time></trkpt><trkpt lat="38.2098854" lon="15.4897665"><ele>460.0</ele><time>2026-03-26T11:07:20.756Z</time></trkpt><trkpt lat="38.2098625" lon="15.4898571"><ele>466.83333333333337</ele><time>2026-03-26T11:07:21.755Z</time></trkpt><trkpt lat="38.2098233" lon="15.4899656"><ele>473.6666666666667</ele><time>2026-03-26T11:07:22.756Z</time></trkpt><trkpt lat="38.2097934" lon="15.4900423"><ele>480.5</ele><time>2026-03-26T11:07:23.756Z</time></trkpt><trkpt lat="38.2097476" lon="15.4901153"><ele>487.33333333333337</ele><time>2026-03-26T11:07:24.755Z</time></trkpt><trkpt lat="38.2096572" lon="15.4902319"><ele>494.1666666666667</ele><time>2026-03-26T11:07:26.756Z</time></trkpt><trkpt lat="38.2096401" lon="15.4903106"><ele>501.0</ele><time>2026-03-26T11:07:28.754Z</time></trkpt><trkpt lat="38.2097031" lon="15.4903681"><ele>501.0</ele><time>2026-03-26T11:07:31.756Z</time></trkpt><trkpt lat="38.2098033" lon="15.4901871"><ele>501.0</ele><time>2026-03-26T11:07:33.756Z</time></trkpt><trkpt lat="38.2098478" lon="15.4901175"><ele>501.0</ele><time>2026-03-26T11:07:34.754Z</time></trkpt><trkpt lat="38.2099406" lon="15.490034"><ele>501.0</ele><time>2026-03-26T11:07:35.755Z</time></trkpt><trkpt lat="38.210015" lon="15.4899477"><ele>498.0</ele><time>2026-03-26T11:07:36.756Z</time></trkpt><trkpt lat="38.2100686" lon="15.4898779"><ele>495.0</ele><time>2026-03-26T11:07:37.755Z</time></trkpt><trkpt lat="38.2101263" lon="15.4898082"><ele>492.0</ele><time>2026-03-26T11:07:38.755Z</time></trkpt><trkpt lat="38.2102013" lon="15.4897722"><ele>489.0</ele><time>2026-03-26T11:07:40.756Z</time></trkpt><trkpt lat="38.2102611" lon="15.4898249"><ele>486.0</ele><time>2026-03-26T11:07:43.756Z</time></trkpt><trkpt lat="38.2102328" lon="15.4899258"><ele>483.0</ele><time>2026-03-26T11:07:45.756Z</time></trkpt><trkpt lat="38.210159" lon="15.4900473"><ele>483.0</ele><time>2026-03-26T11:07:47.755Z</time></trkpt><trkpt lat="38.2100721" lon="15.4902006"><ele>483.0</ele><time>2026-03-26T11:07:49.756Z</time></trkpt><trkpt lat="38.2099802" lon="15.4902954"><ele>483.0</ele><time>2026-03-26T11:07:51.755Z</time></trkpt><trkpt lat="38.2099029" lon="15.4903825"><ele>483.0</ele><time>2026-03-26T11:07:53.755Z</time></trkpt><trkpt lat="38.2098511" lon="15.4905108"><ele>485.1666666666667</ele><time>2026-03-26T11:07:55.756Z</time></trkpt><trkpt lat="38.2098266" lon="15.490594"><ele>487.33333333333337</ele><time>2026-03-26T11:07:56.756Z</time></trkpt><trkpt lat="38.2097504" lon="15.4907017"><ele>489.5</ele><time>2026-03-26T11:07:58.755Z</time></trkpt><trkpt lat="38.2096925" lon="15.4907592"><ele>491.6666666666667</ele><time>2026-03-26T11:07:59.755Z</time></trkpt><trkpt lat="38.2096163" lon="15.4908204"><ele>493.83333333333337</ele><time>2026-03-26T11:08:00.756Z</time></trkpt><trkpt lat="38.2095584" lon="15.4908711"><ele>496.0</ele><time>2026-03-26T11:08:01.756Z</time></trkpt><trkpt lat="38.2094894" lon="15.4909287"><ele>496.33333333333337</ele><time>2026-03-26T11:08:02.755Z</time></trkpt><trkpt lat="38.2094112" lon="15.4909663"><ele>496.6666666666667</ele><time>2026-03-26T11:08:03.756Z</time></trkpt><trkpt lat="38.2093363" lon="15.4910385"><ele>497.0</ele><time>2026-03-26T11:08:04.755Z</time></trkpt><trkpt lat="38.2092668" lon="15.4911066"><ele>497.33333333333337</ele><time>2026-03-26T11:08:05.756Z</time></trkpt><trkpt lat="38.2091974" lon="15.4911822"><ele>497.6666666666667</ele><time>2026-03-26T11:08:06.755Z</time></trkpt><trkpt lat="38.2091505" lon="15.4912636"><ele>498.0</ele><time>2026-03-26T11:08:07.756Z</time></trkpt><trkpt lat="38.2091046" lon="15.4913358"><ele>498.0</ele><time>2026-03-26T11:08:08.754Z</time></trkpt><trkpt lat="38.2090699" lon="15.4914061"><ele>497.99999999999994</ele><time>2026-03-26T11:08:09.755Z</time></trkpt><trkpt lat="38.208996" lon="15.4914934"><ele>497.99999999999994</ele><time>2026-03-26T11:08:11.755Z</time></trkpt><trkpt lat="38.2089253" lon="15.4915549"><ele>498.0</ele><time>2026-03-26T11:08:13.755Z</time></trkpt><trkpt lat="38.2088161" lon="15.4915076"><ele>498.0</ele><time>2026-03-26T11:08:15.756Z</time></trkpt><trkpt lat="38.208722" lon="15.4914487"><ele>501.8333333333333</ele><time>2026-03-26T11:08:17.756Z</time></trkpt><trkpt lat="38.2085904" lon="15.491404"><ele>505.66666666666663</ele><time>2026-03-26T11:08:19.756Z</time></trkpt><trkpt lat="38.2085173" lon="15.4913752"><ele>509.5</ele><time>2026-03-26T11:08:20.756Z</time></trkpt><trkpt lat="38.208456" lon="15.4913435"><ele>513.3333333333333</ele><time>2026-03-26T11:08:21.756Z</time></trkpt><trkpt lat="38.2083761" lon="15.4913289"><ele>517.1666666666666</ele><time>2026-03-26T11:08:22.756Z</time></trkpt><trkpt lat="38.2083108" lon="15.4913147"><ele>521.0</ele><time>2026-03-26T11:08:23.755Z</time></trkpt><trkpt lat="38.2082365" lon="15.4912942"><ele>521.0</ele><time>2026-03-26T11:08:24.755Z</time></trkpt><trkpt lat="38.2081701" lon="15.4912715"><ele>521.0</ele><time>2026-03-26T11:08:25.755Z</time></trkpt><trkpt lat="38.2081107" lon="15.4912379"><ele>521.0</ele><time>2026-03-26T11:08:26.755Z</time></trkpt><trkpt lat="38.2080391" lon="15.491211"><ele>521.0</ele><time>2026-03-26T11:08:27.755Z</time></trkpt><trkpt lat="38.2079488" lon="15.4912075"><ele>521.0</ele><time>2026-03-26T11:08:28.756Z</time></trkpt><trkpt lat="38.2078498" lon="15.4912335"><ele>521.0</ele><time>2026-03-26T11:08:29.755Z</time></trkpt><trkpt lat="38.2077676" lon="15.4912586"><ele>527.2</ele><time>2026-03-26T11:08:30.756Z</time></trkpt><trkpt lat="38.20769" lon="15.4913011"><ele>533.4000000000001</ele><time>2026-03-26T11:08:31.756Z</time></trkpt><trkpt lat="38.2076329" lon="15.4914231"><ele>539.6</ele><time>2026-03-26T11:08:33.755Z</time></trkpt><trkpt lat="38.2075797" lon="15.4915857"><ele>545.8000000000001</ele><time>2026-03-26T11:08:35.755Z</time></trkpt><trkpt lat="38.2075572" lon="15.4916996"><ele>552.0</ele><time>2026-03-26T11:08:36.756Z</time></trkpt><trkpt lat="38.2075291" lon="15.4917916"><ele>552.0</ele><time>2026-03-26T11:08:37.756Z</time></trkpt><trkpt lat="38.2075106" lon="15.4918765"><ele>552.0</ele><time>2026-03-26T11:08:38.756Z</time></trkpt><trkpt lat="38.2074371" lon="15.4919287"><ele>552.0</ele><time>2026-03-26T11:08:40.755Z</time></trkpt><trkpt lat="38.2073627" lon="15.4918939"><ele>552.0</ele><time>2026-03-26T11:08:43.755Z</time></trkpt><trkpt lat="38.2073569" lon="15.4917838"><ele>552.0</ele><time>2026-03-26T11:08:45.755Z</time></trkpt><trkpt lat="38.2073824" lon="15.4917083"><ele>552.0</ele><time>2026-03-26T11:08:46.755Z</time></trkpt><trkpt lat="38.2074006" lon="15.4915979"><ele>552.0</ele><time>2026-03-26T11:08:48.755Z</time></trkpt><trkpt lat="38.2073348" lon="15.491582"><ele>552.0</ele><time>2026-03-26T11:09:17.755Z</time></trkpt><trkpt lat="38.2072971" lon="15.4916685"><ele>552.0</ele><time>2026-03-26T11:09:19.756Z</time></trkpt><trkpt lat="38.207249" lon="15.4917298"><ele>552.0</ele><time>2026-03-26T11:09:36.756Z</time></trkpt><trkpt lat="38.2071881" lon="15.4916955"><ele>552.0</ele><time>2026-03-26T11:09:42.756Z</time></trkpt><trkpt lat="38.20718" lon="15.4916047"><ele>552.0</ele><time>2026-03-26T11:09:44.755Z</time></trkpt><trkpt lat="38.2072021" lon="15.4914976"><ele>552.0</ele><time>2026-03-26T11:09:45.756Z</time></trkpt><trkpt lat="38.2072176" lon="15.4914091"><ele>552.0</ele><time>2026-03-26T11:09:46.755Z</time></trkpt><trkpt lat="38.2072289" lon="15.4913271"><ele>552.0</ele><time>2026-03-26T11:09:47.756Z</time></trkpt><trkpt lat="38.2072316" lon="15.4912117"><ele>552.0</ele><time>2026-03-26T11:09:49.755Z</time></trkpt><trkpt lat="38.2072349" lon="15.4911203"><ele>552.0</ele><time>2026-03-26T11:09:52.755Z</time></trkpt><trkpt lat="38.2071629" lon="15.4911689"><ele>552.0</ele><time>2026-03-26T11:09:54.756Z</time></trkpt><trkpt lat="38.2070896" lon="15.4912609"><ele>552.0</ele><time>2026-03-26T11:09:56.756Z</time></trkpt><trkpt lat="38.2070087" lon="15.4912859"><ele>556.1666666666666</ele><time>2026-03-26T11:09:57.755Z</time></trkpt><trkpt lat="38.2069329" lon="15.4912787"><ele>560.3333333333334</ele><time>2026-03-26T11:09:58.756Z</time></trkpt><trkpt lat="38.2068571" lon="15.4912764"><ele>564.5</ele><time>2026-03-26T11:09:59.756Z</time></trkpt><trkpt lat="38.2067818" lon="15.4913083"><ele>568.6666666666667</ele><time>2026-03-26T11:10:00.756Z</time></trkpt><trkpt lat="38.2067" lon="15.4913434"><ele>572.8333333333334</ele><time>2026-03-26T11:10:01.756Z</time></trkpt><trkpt lat="38.2066318" lon="15.4913577"><ele>577.0</ele><time>2026-03-26T11:10:02.756Z</time></trkpt><trkpt lat="38.2065597" lon="15.4913564"><ele>575.6</ele><time>2026-03-26T11:10:03.755Z</time></trkpt><trkpt lat="38.206493" lon="15.4913629"><ele>574.2</ele><time>2026-03-26T11:10:04.756Z</time></trkpt><trkpt lat="38.2063911" lon="15.4913055"><ele>572.8</ele><time>2026-03-26T11:10:05.756Z</time></trkpt><trkpt lat="38.2063082" lon="15.4912877"><ele>571.4</ele><time>2026-03-26T11:10:06.757Z</time></trkpt><trkpt lat="38.2062138" lon="15.491256"><ele>570.0</ele><time>2026-03-26T11:10:07.756Z</time></trkpt><trkpt lat="38.2061101" lon="15.4912204"><ele>570.0</ele><time>2026-03-26T11:10:09.755Z</time></trkpt><trkpt lat="38.2059963" lon="15.4912189"><ele>570.0</ele><time>2026-03-26T11:10:11.756Z</time></trkpt><trkpt lat="38.2058931" lon="15.491261"><ele>570.0</ele><time>2026-03-26T11:10:13.757Z</time></trkpt><trkpt lat="38.2058472" lon="15.4913787"><ele>570.0</ele><time>2026-03-26T11:10:15.755Z</time></trkpt><trkpt lat="38.2058543" lon="15.4914952"><ele>570.0</ele><time>2026-03-26T11:10:18.757Z</time></trkpt><trkpt lat="38.2059043" lon="15.4915485"><ele>574.8</ele><time>2026-03-26T11:10:20.755Z</time></trkpt><trkpt lat="38.2060025" lon="15.4915292"><ele>579.6</ele><time>2026-03-26T11:10:22.756Z</time></trkpt><trkpt lat="38.206066" lon="15.4914911"><ele>584.4</ele><time>2026-03-26T11:10:23.757Z</time></trkpt><trkpt lat="38.2061287" lon="15.4915122"><ele>589.2</ele><time>2026-03-26T11:10:25.757Z</time></trkpt><trkpt lat="38.2061443" lon="15.4916018"><ele>594.0</ele><time>2026-03-26T11:10:28.756Z</time></trkpt><trkpt lat="38.2059904" lon="15.4916881"><ele>594.0</ele><time>2026-03-26T11:10:31.757Z</time></trkpt><trkpt lat="38.2059282" lon="15.4917045"><ele>594.0</ele><time>2026-03-26T11:10:32.757Z</time></trkpt><trkpt lat="38.2058547" lon="15.4917287"><ele>594.0</ele><time>2026-03-26T11:10:33.756Z</time></trkpt><trkpt lat="38.2057888" lon="15.4917417"><ele>594.0</ele><time>2026-03-26T11:10:34.756Z</time></trkpt><trkpt lat="38.2056732" lon="15.4916994"><ele>594.0</ele><time>2026-03-26T11:10:36.755Z</time></trkpt><trkpt lat="38.2056734" lon="15.4915958"><ele>594.0</ele><time>2026-03-26T11:10:37.756Z</time></trkpt><trkpt lat="38.2056103" lon="15.4915226"><ele>593.8333333333334</ele><time>2026-03-26T11:10:38.757Z</time></trkpt><trkpt lat="38.2055524" lon="15.4914564"><ele>593.6666666666666</ele><time>2026-03-26T11:10:39.757Z</time></trkpt><trkpt lat="38.2054811" lon="15.4913982"><ele>593.5</ele><time>2026-03-26T11:10:40.757Z</time></trkpt><trkpt lat="38.2054297" lon="15.4913064"><ele>593.3333333333333</ele><time>2026-03-26T11:10:41.757Z</time></trkpt><trkpt lat="38.20538" lon="15.491217"><ele>593.1666666666666</ele><time>2026-03-26T11:10:42.756Z</time></trkpt><trkpt lat="38.2053309" lon="15.4911195"><ele>593.0</ele><time>2026-03-26T11:10:43.757Z</time></trkpt><trkpt lat="38.2052861" lon="15.491049"><ele>593.0</ele><time>2026-03-26T11:10:44.756Z</time></trkpt><trkpt lat="38.2052263" lon="15.4909616"><ele>593.0</ele><time>2026-03-26T11:10:45.756Z</time></trkpt><trkpt lat="38.2051636" lon="15.4909015"><ele>593.0</ele><time>2026-03-26T11:10:46.756Z</time></trkpt><trkpt lat="38.2050579" lon="15.4908114"><ele>593.0</ele><time>2026-03-26T11:10:48.756Z</time></trkpt><trkpt lat="38.2049611" lon="15.4907785"><ele>593.0</ele><time>2026-03-26T11:10:49.756Z</time></trkpt><trkpt lat="38.2048653" lon="15.4907646"><ele>595.1999999999999</ele><time>2026-03-26T11:10:50.756Z</time></trkpt><trkpt lat="38.2047729" lon="15.4907402"><ele>597.4</ele><time>2026-03-26T11:10:51.756Z</time></trkpt><trkpt lat="38.2046755" lon="15.4907168"><ele>599.5999999999999</ele><time>2026-03-26T11:10:52.756Z</time></trkpt><trkpt lat="38.2045844" lon="15.4906919"><ele>601.8</ele><time>2026-03-26T11:10:53.756Z</time></trkpt><trkpt lat="38.2045009" lon="15.490708"><ele>604.0</ele><time>2026-03-26T11:10:54.756Z</time></trkpt><trkpt lat="38.2044148" lon="15.490684"><ele>604.0</ele><time>2026-03-26T11:10:55.757Z</time></trkpt><trkpt lat="38.2043211" lon="15.4906906"><ele>604.0</ele><time>2026-03-26T11:10:56.757Z</time></trkpt><trkpt lat="38.2041789" lon="15.4907745"><ele>604.0</ele><time>2026-03-26T11:10:58.755Z</time></trkpt><trkpt lat="38.204117" lon="15.4908229"><ele>604.0</ele><time>2026-03-26T11:10:59.757Z</time></trkpt><trkpt lat="38.2040661" lon="15.490873"><ele>604.0</ele><time>2026-03-26T11:11:00.756Z</time></trkpt><trkpt lat="38.2040014" lon="15.4909264"><ele>604.6666666666667</ele><time>2026-03-26T11:11:01.755Z</time></trkpt><trkpt lat="38.2039646" lon="15.4910132"><ele>605.3333333333334</ele><time>2026-03-26T11:11:02.756Z</time></trkpt><trkpt lat="38.2039159" lon="15.491109"><ele>606.0</ele><time>2026-03-26T11:11:03.757Z</time></trkpt><trkpt lat="38.2038675" lon="15.4911956"><ele>606.6666666666666</ele><time>2026-03-26T11:11:04.756Z</time></trkpt><trkpt lat="38.2038175" lon="15.4912661"><ele>607.3333333333333</ele><time>2026-03-26T11:11:05.757Z</time></trkpt><trkpt lat="38.2037325" lon="15.4912889"><ele>608.0</ele><time>2026-03-26T11:11:07.756Z</time></trkpt><trkpt lat="38.2036578" lon="15.4912963"><ele>612.5</ele><time>2026-03-26T11:11:09.756Z</time></trkpt><trkpt lat="38.2035846" lon="15.4913395"><ele>617.0</ele><time>2026-03-26T11:11:16.756Z</time></trkpt><trkpt lat="38.2035402" lon="15.4914344"><ele>621.5</ele><time>2026-03-26T11:11:19.757Z</time></trkpt><trkpt lat="38.2035504" lon="15.4915484"><ele>626.0</ele><time>2026-03-26T11:11:21.756Z</time></trkpt><trkpt lat="38.2035323" lon="15.4914711"><ele>630.5</ele><time>2026-03-26T11:11:33.757Z</time></trkpt><trkpt lat="38.2035086" lon="15.4913916"><ele>635.0</ele><time>2026-03-26T11:11:35.757Z</time></trkpt><trkpt lat="38.2034536" lon="15.4913368"><ele>635.0</ele><time>2026-03-26T11:11:57.757Z</time></trkpt><trkpt lat="38.2034301" lon="15.491453"><ele>635.0</ele><time>2026-03-26T11:12:09.757Z</time></trkpt><trkpt lat="38.2034976" lon="15.4915357"><ele>635.0</ele><time>2026-03-26T11:12:13.756Z</time></trkpt><trkpt lat="38.2036075" lon="15.4916123"><ele>635.0</ele><time>2026-03-26T11:12:14.757Z</time></trkpt><trkpt lat="38.2036792" lon="15.4915679"><ele>635.0</ele><time>2026-03-26T11:12:27.757Z</time></trkpt><trkpt lat="38.2037891" lon="15.4915346"><ele>635.0</ele><time>2026-03-26T11:12:29.756Z</time></trkpt><trkpt lat="38.2038562" lon="15.4915174"><ele>635.0</ele><time>2026-03-26T11:12:30.757Z</time></trkpt><trkpt lat="38.2039254" lon="15.4915257"><ele>635.0</ele><time>2026-03-26T11:12:31.757Z</time></trkpt><trkpt lat="38.2040448" lon="15.4915275"><ele>635.0</ele><time>2026-03-26T11:12:33.755Z</time></trkpt><trkpt lat="38.204176" lon="15.4915363"><ele>635.0</ele><time>2026-03-26T11:12:35.756Z</time></trkpt><trkpt lat="38.2043549" lon="15.4915832"><ele>633.6</ele><time>2026-03-26T11:12:37.757Z</time></trkpt><trkpt lat="38.2044589" lon="15.4915986"><ele>632.2</ele><time>2026-03-26T11:12:38.755Z</time></trkpt><trkpt lat="38.2045647" lon="15.4916404"><ele>630.8</ele><time>2026-03-26T11:12:39.756Z</time></trkpt><trkpt lat="38.2046436" lon="15.491661"><ele>629.4</ele><time>2026-03-26T11:12:40.755Z</time></trkpt><trkpt lat="38.2047065" lon="15.4917524"><ele>628.0</ele><time>2026-03-26T11:12:41.756Z</time></trkpt><trkpt lat="38.2047815" lon="15.4918418"><ele>629.0</ele><time>2026-03-26T11:12:42.756Z</time></trkpt><trkpt lat="38.2048535" lon="15.491959"><ele>630.0</ele><time>2026-03-26T11:12:43.757Z</time></trkpt><trkpt lat="38.2048948" lon="15.4920584"><ele>631.0</ele><time>2026-03-26T11:12:44.756Z</time></trkpt><trkpt lat="38.2049655" lon="15.4921498"><ele>632.0</ele><time>2026-03-26T11:12:45.756Z</time></trkpt><trkpt lat="38.2050199" lon="15.4922236"><ele>633.0</ele><time>2026-03-26T11:12:46.755Z</time></trkpt><trkpt lat="38.2051014" lon="15.4923451"><ele>633.0</ele><time>2026-03-26T11:12:47.756Z</time></trkpt><trkpt lat="38.2051598" lon="15.4924482"><ele>633.0</ele><time>2026-03-26T11:12:48.757Z</time></trkpt><trkpt lat="38.2052409" lon="15.4925168"><ele>633.0</ele><time>2026-03-26T11:12:49.756Z</time></trkpt><trkpt lat="38.205316" lon="15.4925909"><ele>633.0</ele><time>2026-03-26T11:12:50.757Z</time></trkpt><trkpt lat="38.2054221" lon="15.492662"><ele>633.0</ele><time>2026-03-26T11:12:51.757Z</time></trkpt><trkpt lat="38.2054776" lon="15.4927637"><ele>633.0</ele><time>2026-03-26T11:12:52.757Z</time></trkpt><trkpt lat="38.2055528" lon="15.4928496"><ele>633.0</ele><time>2026-03-26T11:12:53.756Z</time></trkpt><trkpt lat="38.2056161" lon="15.4929265"><ele>633.0</ele><time>2026-03-26T11:12:54.756Z</time></trkpt><trkpt lat="38.2056775" lon="15.4929868"><ele>633.0</ele><time>2026-03-26T11:12:55.756Z</time></trkpt><trkpt lat="38.2057323" lon="15.4930526"><ele>633.0</ele><time>2026-03-26T11:12:56.757Z</time></trkpt><trkpt lat="38.2057755" lon="15.4932209"><ele>630.8</ele><time>2026-03-26T11:12:58.756Z</time></trkpt><trkpt lat="38.2057921" lon="15.493327"><ele>628.5999999999999</ele><time>2026-03-26T11:12:59.756Z</time></trkpt><trkpt lat="38.2058086" lon="15.4934238"><ele>626.4000000000001</ele><time>2026-03-26T11:13:00.755Z</time></trkpt><trkpt lat="38.2057885" lon="15.4935407"><ele>624.2</ele><time>2026-03-26T11:13:01.757Z</time></trkpt><trkpt lat="38.2057766" lon="15.4936709"><ele>622.0</ele><time>2026-03-26T11:13:02.757Z</time></trkpt><trkpt lat="38.205753" lon="15.493799"><ele>622.0</ele><time>2026-03-26T11:13:03.756Z</time></trkpt><trkpt lat="38.2057425" lon="15.4939236"><ele>622.0</ele><time>2026-03-26T11:13:04.756Z</time></trkpt><trkpt lat="38.2057437" lon="15.4940446"><ele>622.0</ele><time>2026-03-26T11:13:05.756Z</time></trkpt><trkpt lat="38.205752" lon="15.4941597"><ele>622.0</ele><time>2026-03-26T11:13:06.756Z</time></trkpt><trkpt lat="38.2057704" lon="15.494262"><ele>622.0</ele><time>2026-03-26T11:13:07.757Z</time></trkpt><trkpt lat="38.2058031" lon="15.4943797"><ele>622.0</ele><time>2026-03-26T11:13:08.757Z</time></trkpt><trkpt lat="38.2058317" lon="15.4944846"><ele>622.0</ele><time>2026-03-26T11:13:09.756Z</time></trkpt><trkpt lat="38.2058584" lon="15.4945902"><ele>622.0</ele><time>2026-03-26T11:13:10.757Z</time></trkpt><trkpt lat="38.2058822" lon="15.4946892"><ele>622.0</ele><time>2026-03-26T11:13:11.757Z</time></trkpt><trkpt lat="38.2059044" lon="15.4947795"><ele>622.0</ele><time>2026-03-26T11:13:12.756Z</time></trkpt><trkpt lat="38.2059129" lon="15.4948674"><ele>622.0</ele><time>2026-03-26T11:13:13.756Z</time></trkpt><trkpt lat="38.2059491" lon="15.4949493"><ele>627.0</ele><time>2026-03-26T11:13:15.755Z</time></trkpt></trkseg></trk></gpx>